Ballincollig, Ireland
Current Conditions -  °F | °C
As of 2:00 PM on Wednesday 26 Nov 2014 (Local Time) from EICK Reporting Station
Broken Clouds Broken Clouds  
Wind Chill: 44°   Ceiling: 2100
Heat Index: 46°   Visibility: 6mi
Dew Point: 43°   Wind: 5mph
Humidity: 87%   Direction: 120°ESE
Pressure: 29.88"   Gusts: NA
Location:  51.89°N, 8.59°W
Report Text: EICK 261400Z 12004KT 9999 FEW010 BKN021 08/06 Q1012 NOSIG
Loading
Personal Weather Stations






























Interactive Weather Map New forecast layout! Learn more

10-Day Weather Forecast

Advertisements
Track Severe Weather on mobile